KMWA/MWA METAR and TAF weather

Enter ICAO airport designator
Station Type Date Time Source
KMWA METAR 2020/08/15 15:50 UTC NOAA

KMWA 151550Z 34011KT 10SM SCT026 BKN035 29/23 A2998


Station Type Date Time Source
KMWA Decoded METAR 2020/08/15 15:50 UTC NOAA

Marion, Williamson County Regional Airport, IL, United States (KMWA) 37-45-01N 089-00-04W
Aug 15, 2020 - 11:50 AM EDT / 2020.08.15 1550 UTC
Wind: from the NNW (340 degrees) at 13 MPH (11 KT):0
Visibility: 10 mile(s):0
Sky conditions: mostly cloudy
Temperature: 84 F (29 C)
Dew Point: 73 F (23 C)
Relative Humidity: 70%
Pressure (altimeter): 29.98 in. Hg (1015 hPa)
ob: KMWA 151550Z 34011KT 10SM SCT026 BKN035 29/23 A2998
cycle: 16

Station Type Date Time Source
KMWA TAF UTC NOAA

Error!

Example: see airport list